createdAt,value
2023-01-19T00:00:01.036Z,-0.8
2023-01-19T00:03:01.019Z,-0.8
2023-01-19T00:06:01.040Z,-0.8
2023-01-19T00:09:00.925Z,-0.8
2023-01-19T00:12:01.168Z,-0.8
2023-01-19T00:15:00.991Z,-0.8
2023-01-19T00:18:00.926Z,-0.8
2023-01-19T00:21:00.961Z,-0.8
2023-01-19T00:24:01.015Z,-1
2023-01-19T00:27:00.906Z,-1
2023-01-19T00:30:00.993Z,-1
2023-01-19T00:33:01.692Z,-1
2023-01-19T00:36:00.989Z,-1
2023-01-19T00:39:00.901Z,-1
2023-01-19T00:42:00.963Z,-1
2023-01-19T00:45:00.964Z,-1
2023-01-19T00:48:00.959Z,-1
2023-01-19T00:51:00.917Z,-1
2023-01-19T00:54:01.031Z,-1
2023-01-19T00:57:00.988Z,-1
2023-01-19T01:00:00.988Z,-1
2023-01-19T01:03:01.769Z,-0.5
2023-01-19T01:06:00.921Z,-0.5
2023-01-19T01:09:00.960Z,-0.5
2023-01-19T01:12:00.952Z,-0.5
2023-01-19T01:15:01.001Z,-0.3
2023-01-19T01:18:01.001Z,-0.3
2023-01-19T01:21:00.897Z,-0.3
2023-01-19T01:24:00.970Z,-0.3
2023-01-19T01:27:00.922Z,-0.3
2023-01-19T01:30:01.046Z,-0.3
2023-01-19T01:33:01.747Z,-0.3
2023-01-19T01:36:00.943Z,-0.3
2023-01-19T01:39:00.931Z,0
2023-01-19T01:42:00.974Z,0
2023-01-19T01:45:00.960Z,0
2023-01-19T01:48:00.939Z,0
2023-01-19T01:51:00.990Z,0
2023-01-19T01:54:00.972Z,0
2023-01-19T01:57:00.944Z,0
2023-01-19T02:00:00.957Z,0
2023-01-19T02:03:01.723Z,0
2023-01-19T02:06:01.035Z,0
2023-01-19T02:09:00.992Z,0
2023-01-19T02:12:00.907Z,0
2023-01-19T02:15:00.909Z,0.1
2023-01-19T02:18:00.923Z,0.1
2023-01-19T02:21:00.915Z,0.1
2023-01-19T02:24:00.941Z,0.1
2023-01-19T02:27:00.899Z,0.1
2023-01-19T02:30:00.922Z,0.1
2023-01-19T02:33:01.601Z,0.1
2023-01-19T02:36:00.945Z,0.1
2023-01-19T02:39:00.943Z,0.1
2023-01-19T02:42:00.926Z,0.1
2023-01-19T02:45:00.997Z,0.1
2023-01-19T02:48:00.929Z,0.1
2023-01-19T02:51:00.958Z,0.1
2023-01-19T02:54:00.925Z,0.1
2023-01-19T02:57:00.931Z,0.1
2023-01-19T03:00:00.951Z,0.1
2023-01-19T03:03:01.456Z,0.1
2023-01-19T03:06:00.933Z,0
2023-01-19T03:09:00.946Z,0
2023-01-19T03:12:00.947Z,0
2023-01-19T03:15:01.339Z,0
2023-01-19T03:18:00.980Z,0
2023-01-19T03:21:00.921Z,0
2023-01-19T03:24:00.938Z,0
2023-01-19T03:27:00.908Z,0
2023-01-19T03:30:00.979Z,0
2023-01-19T03:33:01.832Z,0
2023-01-19T03:36:00.966Z,0
2023-01-19T03:39:00.990Z,0
2023-01-19T03:42:00.986Z,0
2023-01-19T03:45:00.955Z,0
2023-01-19T03:48:00.973Z,0
2023-01-19T03:51:00.966Z,0
2023-01-19T03:54:00.988Z,0
2023-01-19T03:57:00.908Z,0
2023-01-19T04:00:01.138Z,0.2
2023-01-19T04:03:01.733Z,0.2
2023-01-19T04:06:00.967Z,0.2
2023-01-19T04:09:00.996Z,0.2
2023-01-19T04:12:00.933Z,0.2
2023-01-19T04:15:01.022Z,0.2
2023-01-19T04:18:00.935Z,0.2
2023-01-19T04:21:00.935Z,0.2
2023-01-19T04:24:00.986Z,0.2
2023-01-19T04:27:00.928Z,0.2
2023-01-19T04:30:00.975Z,0.2
2023-01-19T04:33:01.771Z,0.2
2023-01-19T04:36:00.954Z,0.2
2023-01-19T04:39:00.925Z,0.2
2023-01-19T04:42:00.929Z,0.2
2023-01-19T04:45:00.936Z,0.2
2023-01-19T04:48:00.972Z,0.2
2023-01-19T04:51:00.985Z,0.2
2023-01-19T04:54:01.048Z,0.2
2023-01-19T04:57:00.954Z,0.4
2023-01-19T05:00:01.012Z,0.4
2023-01-19T05:03:01.847Z,0.4
2023-01-19T05:06:00.956Z,0.4
2023-01-19T05:09:00.892Z,0.4
2023-01-19T05:12:00.956Z,0.4
2023-01-19T05:15:00.910Z,0.4
2023-01-19T05:18:00.914Z,0.4
2023-01-19T05:21:00.957Z,0.4
2023-01-19T05:24:00.951Z,0.4
2023-01-19T05:27:00.909Z,0.4
2023-01-19T05:30:00.913Z,0.4
2023-01-19T05:33:01.629Z,0.4
2023-01-19T05:36:00.961Z,0.4
2023-01-19T05:39:00.895Z,0.4
2023-01-19T05:42:00.949Z,0.4
2023-01-19T05:45:01.006Z,0.4
2023-01-19T05:48:00.967Z,0.4
2023-01-19T05:51:00.951Z,0.4
2023-01-19T05:54:01.019Z,0.4
2023-01-19T05:57:00.965Z,0.4
2023-01-19T06:00:00.970Z,0.4
2023-01-19T06:03:01.710Z,0.4
2023-01-19T06:06:00.947Z,0.4
2023-01-19T06:09:00.941Z,0.4
2023-01-19T06:12:00.920Z,0.4
2023-01-19T06:15:01.148Z,0.4
2023-01-19T06:18:00.966Z,0.4
2023-01-19T06:21:00.951Z,0.4
2023-01-19T06:24:00.933Z,0.4
2023-01-19T06:27:00.975Z,0.3
2023-01-19T06:30:01.056Z,0.3
2023-01-19T06:33:01.691Z,0.3
2023-01-19T06:36:01.021Z,0.3
2023-01-19T06:39:00.945Z,0.3
2023-01-19T06:42:01.011Z,0.3
2023-01-19T06:45:00.917Z,0.3
2023-01-19T06:48:00.940Z,0.3
2023-01-19T06:51:00.932Z,0.3
2023-01-19T06:54:00.967Z,0.3
2023-01-19T06:57:03.551Z,0.3
2023-01-19T07:00:01.145Z,0.3
2023-01-19T07:03:01.712Z,0.3
2023-01-19T07:06:00.929Z,0.3
2023-01-19T07:09:00.988Z,0.3
2023-01-19T07:12:00.962Z,0.3
2023-01-19T07:15:01.008Z,0.3
2023-01-19T07:18:00.969Z,0.3
2023-01-19T07:21:01.010Z,0.3
2023-01-19T07:24:01.048Z,0.3
2023-01-19T07:27:01.012Z,0.3
2023-01-19T07:30:01.093Z,0.3
2023-01-19T07:33:01.742Z,0.3
2023-01-19T07:36:00.961Z,0.3
2023-01-19T07:39:01.081Z,0.3
2023-01-19T07:42:01.734Z,0.3
2023-01-19T07:45:00.979Z,0.3
2023-01-19T07:48:01.058Z,0.3
2023-01-19T07:51:01.037Z,0.3
2023-01-19T07:54:00.915Z,0.3
2023-01-19T07:57:01.046Z,0.3
2023-01-19T08:00:01.195Z,0.3
2023-01-19T08:03:01.869Z,0.3
2023-01-19T08:06:01.069Z,0.3
2023-01-19T08:09:01.095Z,0.3
2023-01-19T08:12:01.001Z,0.3
2023-01-19T08:15:01.032Z,0.5
2023-01-19T08:18:01.011Z,0.5
2023-01-19T08:21:01.005Z,0.5
2023-01-19T08:24:00.990Z,0.5
2023-01-19T08:27:01.055Z,0.5
2023-01-19T08:30:01.003Z,0.5
2023-01-19T08:33:01.803Z,0.5
2023-01-19T08:36:00.969Z,0.5
2023-01-19T08:39:01.023Z,0.5
2023-01-19T08:42:01.103Z,0.5
2023-01-19T08:45:00.967Z,0.5
2023-01-19T08:48:01.000Z,0.8
2023-01-19T08:51:01.065Z,0.8
2023-01-19T08:54:00.974Z,0.8
2023-01-19T08:57:01.012Z,0.8
2023-01-19T09:00:01.051Z,0.8
2023-01-19T09:03:01.663Z,0.8
2023-01-19T09:06:01.074Z,0.8
2023-01-19T09:09:00.950Z,1.3
2023-01-19T09:12:01.086Z,1.3
2023-01-19T09:15:01.177Z,1.3
2023-01-19T09:18:01.841Z,1.3
2023-01-19T09:21:00.992Z,1.3
2023-01-19T09:24:00.996Z,1.3
2023-01-19T09:27:01.087Z,1.8
2023-01-19T09:30:01.075Z,1.8
2023-01-19T09:33:01.010Z,1.8
2023-01-19T09:36:00.970Z,1.8
2023-01-19T09:39:00.989Z,1.8
2023-01-19T09:42:01.028Z,1.8
2023-01-19T09:45:01.302Z,1.8
2023-01-19T09:48:01.840Z,2
2023-01-19T09:51:01.044Z,2
2023-01-19T09:54:01.032Z,2
2023-01-19T09:57:00.942Z,2
2023-01-19T10:00:01.105Z,2
2023-01-19T10:03:01.555Z,2
2023-01-19T10:06:01.025Z,2.1
2023-01-19T10:09:00.961Z,2.1
2023-01-19T10:12:01.037Z,2.1
2023-01-19T10:15:01.012Z,2.1
2023-01-19T10:18:01.843Z,2.1
2023-01-19T10:21:01.336Z,2.1
2023-01-19T10:24:01.037Z,2.1
2023-01-19T10:27:01.008Z,2.1
2023-01-19T10:30:01.212Z,2.1
2023-01-19T10:33:01.602Z,2.1
2023-01-19T10:36:01.089Z,2.1
2023-01-19T10:39:00.971Z,2.1
2023-01-19T10:42:01.077Z,2.1
2023-01-19T10:45:01.077Z,2.1
2023-01-19T10:48:01.102Z,2.1
2023-01-19T10:51:01.116Z,2.1
2023-01-19T10:54:01.126Z,2.1
2023-01-19T10:57:01.035Z,2.2
2023-01-19T11:00:01.125Z,2.2
2023-01-19T11:03:02.048Z,2.2
2023-01-19T11:06:00.992Z,2.2
2023-01-19T11:09:00.948Z,2.2
2023-01-19T11:12:00.942Z,2.2
2023-01-19T11:15:00.953Z,2.2
2023-01-19T11:18:01.050Z,2.2
2023-01-19T11:21:00.977Z,2.2
2023-01-19T11:24:01.058Z,2.2
2023-01-19T11:27:00.941Z,2.2
2023-01-19T11:30:01.134Z,2.2
2023-01-19T11:33:01.665Z,2.2
2023-01-19T11:36:00.916Z,2.2
2023-01-19T11:39:00.996Z,2.2
2023-01-19T11:42:00.991Z,2.2
2023-01-19T11:45:01.085Z,2.2
2023-01-19T11:48:01.637Z,2.2
2023-01-19T11:51:01.030Z,2.2
2023-01-19T11:54:00.937Z,2.2
2023-01-19T11:57:01.011Z,2.5
2023-01-19T12:00:00.993Z,2.5
2023-01-19T12:03:01.166Z,2.5
2023-01-19T12:06:00.980Z,2.5
2023-01-19T12:09:00.993Z,2.5
2023-01-19T12:12:01.031Z,2.5
2023-01-19T12:15:01.057Z,2.5
2023-01-19T12:18:01.608Z,2.5
2023-01-19T12:21:04.247Z,2.5
2023-01-19T12:24:01.057Z,2.5
2023-01-19T12:27:01.071Z,2.7
2023-01-19T12:30:01.165Z,2.7
2023-01-19T12:33:00.980Z,2.7
2023-01-19T12:36:01.049Z,2.7
2023-01-19T12:39:01.075Z,2.7
2023-01-19T12:42:00.947Z,2.7
2023-01-19T12:45:01.034Z,2.7
2023-01-19T12:48:01.105Z,2.8
2023-01-19T12:51:01.005Z,2.8
2023-01-19T12:54:01.059Z,2.8
2023-01-19T12:57:01.029Z,2.8
2023-01-19T13:00:01.285Z,2.9
2023-01-19T13:03:01.233Z,2.9
2023-01-19T13:06:00.976Z,2.9
2023-01-19T13:09:01.046Z,2.9
2023-01-19T13:12:01.425Z,2.9
2023-01-19T13:15:01.424Z,2.9
2023-01-19T13:18:01.000Z,2.9
2023-01-19T13:21:00.995Z,2.9
2023-01-19T13:24:01.077Z,2.9
2023-01-19T13:27:01.030Z,2.9
2023-01-19T13:30:02.093Z,2.9
2023-01-19T13:33:01.030Z,2.9
2023-01-19T13:36:01.066Z,2.9
2023-01-19T13:39:01.102Z,2.7
2023-01-19T13:42:01.006Z,2.7
2023-01-19T13:45:01.020Z,2.7
2023-01-19T13:48:01.073Z,2.7
2023-01-19T13:51:00.965Z,2.7
2023-01-19T13:54:01.040Z,2.7
2023-01-19T13:57:00.985Z,2.6
2023-01-19T14:00:01.892Z,2.6
2023-01-19T14:03:01.112Z,2.6
2023-01-19T14:06:01.133Z,2.6
2023-01-19T14:09:01.244Z,2.6
2023-01-19T14:12:01.046Z,2.4
2023-01-19T14:15:01.094Z,2.4
2023-01-19T14:18:01.243Z,2.4
2023-01-19T14:21:01.058Z,2.4
2023-01-19T14:24:01.015Z,2.3
2023-01-19T14:27:00.986Z,2.3
2023-01-19T14:30:00.996Z,2.3
2023-01-19T14:33:01.006Z,2.3
2023-01-19T14:36:01.009Z,2.3
2023-01-19T14:39:01.007Z,2.3
2023-01-19T14:42:01.119Z,2.3
2023-01-19T14:45:01.252Z,2.3
2023-01-19T14:48:01.025Z,2.2
2023-01-19T14:51:03.950Z,2.2
2023-01-19T14:54:01.002Z,2.2
2023-01-19T14:57:01.009Z,2.2
2023-01-19T15:00:01.142Z,2.2
2023-01-19T15:03:01.026Z,2.2
2023-01-19T15:06:04.127Z,2.2
2023-01-19T15:09:00.954Z,2.2
2023-01-19T15:12:00.991Z,2.2
2023-01-19T15:15:01.419Z,2.2
2023-01-19T15:18:01.084Z,2.2
2023-01-19T15:21:01.021Z,2.2
2023-01-19T15:24:00.981Z,2.2
2023-01-19T15:27:01.014Z,2.2
2023-01-19T15:30:01.125Z,2.2
2023-01-19T15:33:01.058Z,2.2
2023-01-19T15:36:01.040Z,2.2
2023-01-19T15:39:01.200Z,2.2
2023-01-19T15:42:00.917Z,2.2
2023-01-19T15:45:01.004Z,2.2
2023-01-19T15:48:00.985Z,2.2
2023-01-19T15:51:00.989Z,2.2
2023-01-19T15:54:00.990Z,2.2
2023-01-19T15:57:00.987Z,2.2
2023-01-19T16:00:01.063Z,2.2
2023-01-19T16:03:01.132Z,2.2
2023-01-19T16:06:00.933Z,2.2
2023-01-19T16:09:01.059Z,2.3
2023-01-19T16:12:00.954Z,2.3
2023-01-19T16:15:01.053Z,2.3
2023-01-19T16:18:00.963Z,2.3
2023-01-19T16:21:01.004Z,2.3
2023-01-19T16:24:00.953Z,2.3
2023-01-19T16:27:00.969Z,2.3
2023-01-19T16:30:01.010Z,2.3
2023-01-19T16:33:00.932Z,2.2
2023-01-19T16:36:00.941Z,2.2
2023-01-19T16:39:01.059Z,2.1
2023-01-19T16:42:01.236Z,2.1
2023-01-19T16:45:00.963Z,2.1
2023-01-19T16:48:00.997Z,2.1
2023-01-19T16:51:00.921Z,2.1
2023-01-19T16:54:01.064Z,2.1
2023-01-19T16:57:01.051Z,2.1
2023-01-19T17:00:01.125Z,2.1
2023-01-19T17:03:01.117Z,2.1
2023-01-19T17:06:00.982Z,2.1
2023-01-19T17:09:00.958Z,2.1
2023-01-19T17:12:01.042Z,2.1
2023-01-19T17:15:01.040Z,2.1
2023-01-19T17:18:00.971Z,2.1
2023-01-19T17:21:00.968Z,2.1
2023-01-19T17:24:01.099Z,2.1
2023-01-19T17:27:01.102Z,2.1
2023-01-19T17:30:01.111Z,1.9
2023-01-19T17:33:01.041Z,1.9
2023-01-19T17:36:00.945Z,1.9
2023-01-19T17:39:00.972Z,1.9
2023-01-19T17:42:00.988Z,1.9
2023-01-19T17:45:00.941Z,1.9
2023-01-19T17:48:00.951Z,1.9
2023-01-19T17:51:01.046Z,1.9
2023-01-19T17:54:00.945Z,1.9
2023-01-19T17:57:01.003Z,1.8
2023-01-19T18:00:01.215Z,1.8
2023-01-19T18:03:01.344Z,1.8
2023-01-19T18:06:01.102Z,1.8
2023-01-19T18:09:00.967Z,1.8
2023-01-19T18:12:00.969Z,1.8
2023-01-19T18:15:01.052Z,1.8
2023-01-19T18:18:01.013Z,1.8
2023-01-19T18:21:01.046Z,1.6
2023-01-19T18:24:01.140Z,1.6
2023-01-19T18:27:00.987Z,1.6
2023-01-19T18:30:02.235Z,1.6
2023-01-19T18:33:01.152Z,1.5
2023-01-19T18:36:01.017Z,1.5
2023-01-19T18:39:01.076Z,1.5
2023-01-19T18:42:00.948Z,1.5
2023-01-19T18:45:01.037Z,1.5
2023-01-19T18:48:01.275Z,1.5
2023-01-19T18:51:01.289Z,1.5
2023-01-19T18:54:01.029Z,1.5
2023-01-19T18:57:01.046Z,1.5
2023-01-19T19:00:01.087Z,1.5
2023-01-19T19:03:01.197Z,1.5
2023-01-19T19:06:01.159Z,1.5
2023-01-19T19:09:00.995Z,1.5
2023-01-19T19:12:01.066Z,1.3
2023-01-19T19:15:00.924Z,1.3
2023-01-19T19:18:00.955Z,1.3
2023-01-19T19:21:00.967Z,1.3
2023-01-19T19:24:00.981Z,1.3
2023-01-19T19:27:00.983Z,1.3
2023-01-19T19:30:01.045Z,1.3
2023-01-19T19:33:01.046Z,1.2
2023-01-19T19:36:00.958Z,1.2
2023-01-19T19:39:00.986Z,1.2
2023-01-19T19:42:01.006Z,1.2
2023-01-19T19:45:00.990Z,1.2
2023-01-19T19:48:01.007Z,1.2
2023-01-19T19:51:18.299Z,1.2
2023-01-19T19:54:00.923Z,1.2
2023-01-19T19:57:00.971Z,1.2
2023-01-19T20:00:00.989Z,1.1
2023-01-19T20:03:01.079Z,1.1
2023-01-19T20:06:00.975Z,1.1
2023-01-19T20:09:00.915Z,1.1
2023-01-19T20:12:01.009Z,1.1
2023-01-19T20:15:01.005Z,1.1
2023-01-19T20:18:00.999Z,1.1
2023-01-19T20:21:01.059Z,1.1
2023-01-19T20:24:01.069Z,1.1
2023-01-19T20:27:00.932Z,1.1
2023-01-19T20:30:00.993Z,1.1
2023-01-19T20:33:00.934Z,1.1
2023-01-19T20:36:00.960Z,1.1
2023-01-19T20:39:00.988Z,1
2023-01-19T20:42:00.981Z,1
2023-01-19T20:45:01.081Z,1
2023-01-19T20:48:01.032Z,1
2023-01-19T20:51:01.062Z,1
2023-01-19T20:54:00.961Z,1
2023-01-19T20:57:00.887Z,1
2023-01-19T21:00:01.103Z,1
2023-01-19T21:03:00.892Z,1
2023-01-19T21:06:00.999Z,0.9
2023-01-19T21:09:00.955Z,0.9
2023-01-19T21:12:00.954Z,0.9
2023-01-19T21:15:00.921Z,0.9
2023-01-19T21:18:01.054Z,0.9
2023-01-19T21:21:01.125Z,0.9
2023-01-19T21:24:01.042Z,0.9
2023-01-19T21:27:00.961Z,0.9
2023-01-19T21:30:01.045Z,0.9
2023-01-19T21:33:00.994Z,0.9
2023-01-19T21:36:00.979Z,0.8
2023-01-19T21:39:01.410Z,0.8
2023-01-19T21:42:00.939Z,0.8
2023-01-19T21:45:01.136Z,0.8
2023-01-19T21:48:00.943Z,0.8
2023-01-19T21:51:01.038Z,0.8
2023-01-19T21:54:00.955Z,0.8
2023-01-19T21:57:00.960Z,0.8
2023-01-19T22:00:01.100Z,0.8
2023-01-19T22:03:04.916Z,0.8
2023-01-19T22:06:00.960Z,0.8
2023-01-19T22:09:01.149Z,0.7
2023-01-19T22:12:00.955Z,0.7
2023-01-19T22:15:01.024Z,0.7
2023-01-19T22:18:00.963Z,0.7
2023-01-19T22:21:01.000Z,0.7
2023-01-19T22:24:00.997Z,0.6
2023-01-19T22:27:00.980Z,0.6
2023-01-19T22:30:01.025Z,0.6
2023-01-19T22:33:01.026Z,0.6
2023-01-19T22:36:01.001Z,0.6
2023-01-19T22:39:00.982Z,0.6
2023-01-19T22:42:00.950Z,0.6
2023-01-19T22:45:00.995Z,0.6
2023-01-19T22:48:01.010Z,0.6
2023-01-19T22:51:01.003Z,0.6
2023-01-19T22:54:00.996Z,0.6
2023-01-19T22:57:01.043Z,0.6
2023-01-19T23:00:01.803Z,0.5
2023-01-19T23:03:00.955Z,0.5
2023-01-19T23:06:01.029Z,0.5
2023-01-19T23:09:00.969Z,0.5
2023-01-19T23:12:00.947Z,0.5
2023-01-19T23:15:00.940Z,0.5
2023-01-19T23:18:00.977Z,0.5
2023-01-19T23:21:00.940Z,0.5
2023-01-19T23:24:01.021Z,0.4
2023-01-19T23:27:00.967Z,0.4
2023-01-19T23:30:01.143Z,0.4
2023-01-19T23:33:00.905Z,0.4
2023-01-19T23:36:00.939Z,0.4
2023-01-19T23:39:00.976Z,0.4
2023-01-19T23:42:00.961Z,0.4
2023-01-19T23:45:00.976Z,0.4
2023-01-19T23:48:01.074Z,0.4
2023-01-19T23:51:00.926Z,0.4
2023-01-19T23:54:01.032Z,0.4
2023-01-19T23:57:00.924Z,0.4
